sensor_id;sensor_type;location;lat;lon;timestamp;temperature;humidity
26743;DHT22;14341;51.256;22.478;2022-11-15T00:00:33;5.90;99.90
26743;DHT22;14341;51.256;22.478;2022-11-15T00:03:55;5.80;99.90
26743;DHT22;14341;51.256;22.478;2022-11-15T00:07:16;5.80;99.90
26743;DHT22;14341;51.256;22.478;2022-11-15T00:11:00;5.80;99.90
26743;DHT22;14341;51.256;22.478;2022-11-15T00:14:23;5.80;99.90
26743;DHT22;14341;51.256;22.478;2022-11-15T00:17:48;5.80;99.90
26743;DHT22;14341;51.256;22.478;2022-11-15T00:21:12;5.80;99.90
26743;DHT22;14341;51.256;22.478;2022-11-15T00:24:34;5.80;99.90
26743;DHT22;14341;51.256;22.478;2022-11-15T00:27:57;5.80;99.90
26743;DHT22;14341;51.256;22.478;2022-11-15T00:31:20;5.80;99.90
26743;DHT22;14341;51.256;22.478;2022-11-15T00:34:42;5.80;99.90
26743;DHT22;14341;51.256;22.478;2022-11-15T00:38:03;5.80;99.90
26743;DHT22;14341;51.256;22.478;2022-11-15T00:41:25;5.80;99.90
26743;DHT22;14341;51.256;22.478;2022-11-15T00:44:47;5.80;99.90
26743;DHT22;14341;51.256;22.478;2022-11-15T00:48:11;5.80;99.90
26743;DHT22;14341;51.256;22.478;2022-11-15T00:51:33;5.80;99.90
26743;DHT22;14341;51.256;22.478;2022-11-15T00:54:55;5.70;99.90
26743;DHT22;14341;51.256;22.478;2022-11-15T00:58:16;5.70;99.90
26743;DHT22;14341;51.256;22.478;2022-11-15T01:01:38;5.70;99.90
26743;DHT22;14341;51.256;22.478;2022-11-15T01:05:02;5.70;99.90
26743;DHT22;14341;51.256;22.478;2022-11-15T01:08:24;5.60;99.90
26743;DHT22;14341;51.256;22.478;2022-11-15T01:11:46;5.60;99.90
26743;DHT22;14341;51.256;22.478;2022-11-15T01:15:08;5.70;99.90
26743;DHT22;14341;51.256;22.478;2022-11-15T01:18:30;5.60;99.90
26743;DHT22;14341;51.256;22.478;2022-11-15T01:21:54;5.60;99.90
26743;DHT22;14341;51.256;22.478;2022-11-15T01:25:16;5.60;99.90
26743;DHT22;14341;51.256;22.478;2022-11-15T01:28:39;5.60;99.90
26743;DHT22;14341;51.256;22.478;2022-11-15T01:32:02;5.60;99.90
26743;DHT22;14341;51.256;22.478;2022-11-15T01:35:24;5.60;99.90
26743;DHT22;14341;51.256;22.478;2022-11-15T01:38:52;5.60;99.90
26743;DHT22;14341;51.256;22.478;2022-11-15T01:42:14;5.60;99.90
26743;DHT22;14341;51.256;22.478;2022-11-15T01:45:36;5.60;99.90
26743;DHT22;14341;51.256;22.478;2022-11-15T01:49:02;5.60;99.90
26743;DHT22;14341;51.256;22.478;2022-11-15T01:52:27;5.60;99.90
26743;DHT22;14341;51.256;22.478;2022-11-15T01:55:51;5.50;99.90
26743;DHT22;14341;51.256;22.478;2022-11-15T01:59:14;5.50;99.90
26743;DHT22;14341;51.256;22.478;2022-11-15T02:02:37;5.50;99.90
26743;DHT22;14341;51.256;22.478;2022-11-15T02:05:59;5.40;99.90
26743;DHT22;14341;51.256;22.478;2022-11-15T02:09:21;5.40;99.90
26743;DHT22;14341;51.256;22.478;2022-11-15T02:12:44;5.40;99.90
26743;DHT22;14341;51.256;22.478;2022-11-15T02:16:15;5.40;99.90
26743;DHT22;14341;51.256;22.478;2022-11-15T02:31:13;5.40;99.90
26743;DHT22;14341;51.256;22.478;2022-11-15T02:34:45;5.40;99.90
26743;DHT22;14341;51.256;22.478;2022-11-15T02:38:15;5.40;99.90
26743;DHT22;14341;51.256;22.478;2022-11-15T02:41:44;5.40;99.90
26743;DHT22;14341;51.256;22.478;2022-11-15T02:45:09;5.40;99.90
26743;DHT22;14341;51.256;22.478;2022-11-15T02:48:34;5.40;99.90
26743;DHT22;14341;51.256;22.478;2022-11-15T02:51:56;5.30;99.90
26743;DHT22;14341;51.256;22.478;2022-11-15T02:55:26;5.30;99.90
26743;DHT22;14341;51.256;22.478;2022-11-15T02:59:00;5.20;99.90
26743;DHT22;14341;51.256;22.478;2022-11-15T03:02:41;5.10;99.90
26743;DHT22;14341;51.256;22.478;2022-11-15T03:06:12;5.20;99.90
26743;DHT22;14341;51.256;22.478;2022-11-15T03:09:41;5.10;99.90
26743;DHT22;14341;51.256;22.478;2022-11-15T03:13:13;5.10;99.90
26743;DHT22;14341;51.256;22.478;2022-11-15T03:16:42;5.10;99.90
26743;DHT22;14341;51.256;22.478;2022-11-15T03:20:07;5.10;99.90
26743;DHT22;14341;51.256;22.478;2022-11-15T03:23:32;5.10;99.90
26743;DHT22;14341;51.256;22.478;2022-11-15T03:26:55;5.00;99.90
26743;DHT22;14341;51.256;22.478;2022-11-15T03:30:18;5.00;99.90
26743;DHT22;14341;51.256;22.478;2022-11-15T03:33:40;4.90;99.90
26743;DHT22;14341;51.256;22.478;2022-11-15T03:37:04;4.90;99.90
26743;DHT22;14341;51.256;22.478;2022-11-15T03:40:33;4.80;99.90
26743;DHT22;14341;51.256;22.478;2022-11-15T03:43:59;4.80;99.90
26743;DHT22;14341;51.256;22.478;2022-11-15T03:47:29;4.90;99.90
26743;DHT22;14341;51.256;22.478;2022-11-15T03:50:52;4.90;99.90
26743;DHT22;14341;51.256;22.478;2022-11-15T03:54:14;4.90;99.90
26743;DHT22;14341;51.256;22.478;2022-11-15T03:57:37;4.90;99.90
26743;DHT22;14341;51.256;22.478;2022-11-15T04:00:59;4.90;99.90
26743;DHT22;14341;51.256;22.478;2022-11-15T04:04:20;4.90;99.90
26743;DHT22;14341;51.256;22.478;2022-11-15T04:07:42;4.80;99.90
26743;DHT22;14341;51.256;22.478;2022-11-15T04:11:05;4.80;99.90
26743;DHT22;14341;51.256;22.478;2022-11-15T04:14:28;4.80;99.90
26743;DHT22;14341;51.256;22.478;2022-11-15T04:17:51;4.80;99.90
26743;DHT22;14341;51.256;22.478;2022-11-15T04:21:13;4.80;99.90
26743;DHT22;14341;51.256;22.478;2022-11-15T04:24:52;4.80;99.90
26743;DHT22;14341;51.256;22.478;2022-11-15T04:28:14;4.70;99.90
26743;DHT22;14341;51.256;22.478;2022-11-15T04:31:37;4.60;99.90
26743;DHT22;14341;51.256;22.478;2022-11-15T04:34:59;4.60;99.90
26743;DHT22;14341;51.256;22.478;2022-11-15T04:38:20;4.60;99.90
26743;DHT22;14341;51.256;22.478;2022-11-15T04:41:42;4.60;99.90
26743;DHT22;14341;51.256;22.478;2022-11-15T04:45:04;4.70;99.90
26743;DHT22;14341;51.256;22.478;2022-11-15T04:48:27;4.60;99.90
26743;DHT22;14341;51.256;22.478;2022-11-15T04:51:49;4.70;99.90
26743;DHT22;14341;51.256;22.478;2022-11-15T04:55:11;4.70;99.90
26743;DHT22;14341;51.256;22.478;2022-11-15T04:58:33;4.70;99.90
26743;DHT22;14341;51.256;22.478;2022-11-15T05:01:55;4.70;99.90
26743;DHT22;14341;51.256;22.478;2022-11-15T05:05:18;4.70;99.90
26743;DHT22;14341;51.256;22.478;2022-11-15T05:08:39;4.70;99.90
26743;DHT22;14341;51.256;22.478;2022-11-15T05:12:01;4.70;99.90
26743;DHT22;14341;51.256;22.478;2022-11-15T05:15:23;4.60;99.90
26743;DHT22;14341;51.256;22.478;2022-11-15T05:18:46;4.70;99.90
26743;DHT22;14341;51.256;22.478;2022-11-15T05:22:13;4.70;99.90
26743;DHT22;14341;51.256;22.478;2022-11-15T05:25:36;4.70;99.90
26743;DHT22;14341;51.256;22.478;2022-11-15T05:28:58;4.70;99.90
26743;DHT22;14341;51.256;22.478;2022-11-15T05:32:21;4.60;99.90
26743;DHT22;14341;51.256;22.478;2022-11-15T05:35:45;4.60;99.90
26743;DHT22;14341;51.256;22.478;2022-11-15T05:39:09;4.60;99.90
26743;DHT22;14341;51.256;22.478;2022-11-15T05:42:32;4.60;99.90
26743;DHT22;14341;51.256;22.478;2022-11-15T05:45:55;4.60;99.90
26743;DHT22;14341;51.256;22.478;2022-11-15T05:49:25;4.60;99.90
26743;DHT22;14341;51.256;22.478;2022-11-15T05:52:48;4.60;99.90
26743;DHT22;14341;51.256;22.478;2022-11-15T05:56:12;4.60;99.90
26743;DHT22;14341;51.256;22.478;2022-11-15T05:59:35;4.60;99.90
26743;DHT22;14341;51.256;22.478;2022-11-15T06:02:57;4.60;99.90
26743;DHT22;14341;51.256;22.478;2022-11-15T06:06:19;4.50;99.90
26743;DHT22;14341;51.256;22.478;2022-11-15T06:09:40;4.50;99.90
26743;DHT22;14341;51.256;22.478;2022-11-15T06:13:04;4.50;99.90
26743;DHT22;14341;51.256;22.478;2022-11-15T06:16:27;4.50;99.90
26743;DHT22;14341;51.256;22.478;2022-11-15T06:19:49;4.50;99.90
26743;DHT22;14341;51.256;22.478;2022-11-15T06:23:11;4.50;99.90
26743;DHT22;14341;51.256;22.478;2022-11-15T06:26:34;4.50;99.90
26743;DHT22;14341;51.256;22.478;2022-11-15T06:29:57;4.50;99.90
26743;DHT22;14341;51.256;22.478;2022-11-15T06:33:19;4.50;99.90
26743;DHT22;14341;51.256;22.478;2022-11-15T06:36:41;4.50;99.90
26743;DHT22;14341;51.256;22.478;2022-11-15T06:40:03;4.50;99.90
26743;DHT22;14341;51.256;22.478;2022-11-15T06:43:25;4.50;99.90
26743;DHT22;14341;51.256;22.478;2022-11-15T06:46:48;4.60;99.90
26743;DHT22;14341;51.256;22.478;2022-11-15T06:50:10;4.40;99.90
26743;DHT22;14341;51.256;22.478;2022-11-15T06:53:32;4.40;99.90
26743;DHT22;14341;51.256;22.478;2022-11-15T06:56:54;4.50;99.90
26743;DHT22;14341;51.256;22.478;2022-11-15T07:00:17;4.50;99.90
26743;DHT22;14341;51.256;22.478;2022-11-15T07:03:42;4.50;99.90
26743;DHT22;14341;51.256;22.478;2022-11-15T07:07:04;4.60;99.90
26743;DHT22;14341;51.256;22.478;2022-11-15T07:10:26;4.60;99.90
26743;DHT22;14341;51.256;22.478;2022-11-15T07:13:48;4.50;99.90
26743;DHT22;14341;51.256;22.478;2022-11-15T07:17:10;4.60;99.90
26743;DHT22;14341;51.256;22.478;2022-11-15T07:20:33;4.70;99.90
26743;DHT22;14341;51.256;22.478;2022-11-15T07:23:55;4.60;99.90
26743;DHT22;14341;51.256;22.478;2022-11-15T07:27:17;4.60;99.90
26743;DHT22;14341;51.256;22.478;2022-11-15T07:30:39;4.60;99.90
26743;DHT22;14341;51.256;22.478;2022-11-15T07:34:04;4.60;99.90
26743;DHT22;14341;51.256;22.478;2022-11-15T07:37:28;4.70;99.90
26743;DHT22;14341;51.256;22.478;2022-11-15T07:40:56;4.70;99.90
26743;DHT22;14341;51.256;22.478;2022-11-15T07:44:19;4.70;99.90
26743;DHT22;14341;51.256;22.478;2022-11-15T07:47:45;4.80;99.90
26743;DHT22;14341;51.256;22.478;2022-11-15T07:51:09;4.80;99.90
26743;DHT22;14341;51.256;22.478;2022-11-15T07:54:35;4.80;99.90
26743;DHT22;14341;51.256;22.478;2022-11-15T07:58:01;4.90;99.90
26743;DHT22;14341;51.256;22.478;2022-11-15T08:01:22;4.90;99.90
26743;DHT22;14341;51.256;22.478;2022-11-15T08:04:44;4.90;99.90
26743;DHT22;14341;51.256;22.478;2022-11-15T08:08:07;4.90;99.90
26743;DHT22;14341;51.256;22.478;2022-11-15T08:11:31;4.90;99.90
26743;DHT22;14341;51.256;22.478;2022-11-15T08:14:52;5.00;99.90
26743;DHT22;14341;51.256;22.478;2022-11-15T08:18:16;5.00;99.90
26743;DHT22;14341;51.256;22.478;2022-11-15T08:21:37;5.20;99.90
26743;DHT22;14341;51.256;22.478;2022-11-15T08:25:00;5.20;99.90
26743;DHT22;14341;51.256;22.478;2022-11-15T08:28:23;5.00;99.90
26743;DHT22;14341;51.256;22.478;2022-11-15T08:31:45;5.10;99.90
26743;DHT22;14341;51.256;22.478;2022-11-15T08:35:07;5.20;99.90
26743;DHT22;14341;51.256;22.478;2022-11-15T08:38:29;5.30;99.90
26743;DHT22;14341;51.256;22.478;2022-11-15T08:41:52;5.40;99.90
26743;DHT22;14341;51.256;22.478;2022-11-15T08:45:15;5.40;99.90
26743;DHT22;14341;51.256;22.478;2022-11-15T08:48:38;5.40;99.90
26743;DHT22;14341;51.256;22.478;2022-11-15T08:52:00;5.40;99.90
26743;DHT22;14341;51.256;22.478;2022-11-15T08:55:22;5.30;99.90
26743;DHT22;14341;51.256;22.478;2022-11-15T08:58:44;5.30;99.90
26743;DHT22;14341;51.256;22.478;2022-11-15T09:02:12;5.30;99.90
26743;DHT22;14341;51.256;22.478;2022-11-15T09:05:36;5.10;99.90
26743;DHT22;14341;51.256;22.478;2022-11-15T09:08:58;5.10;99.90
26743;DHT22;14341;51.256;22.478;2022-11-15T09:12:21;5.30;99.90
26743;DHT22;14341;51.256;22.478;2022-11-15T09:15:44;5.30;99.90
26743;DHT22;14341;51.256;22.478;2022-11-15T09:19:07;5.20;99.90
26743;DHT22;14341;51.256;22.478;2022-11-15T09:22:31;5.30;99.90
26743;DHT22;14341;51.256;22.478;2022-11-15T09:25:58;5.40;99.90
26743;DHT22;14341;51.256;22.478;2022-11-15T09:29:20;5.50;99.90
26743;DHT22;14341;51.256;22.478;2022-11-15T09:32:42;5.40;99.90
26743;DHT22;14341;51.256;22.478;2022-11-15T09:36:07;5.30;99.90
26743;DHT22;14341;51.256;22.478;2022-11-15T09:39:30;5.30;99.90
26743;DHT22;14341;51.256;22.478;2022-11-15T09:43:02;5.60;99.90
26743;DHT22;14341;51.256;22.478;2022-11-15T09:46:33;5.70;99.90
26743;DHT22;14341;51.256;22.478;2022-11-15T09:50:10;5.70;99.90
26743;DHT22;14341;51.256;22.478;2022-11-15T09:53:21;5.70;99.90
26743;DHT22;14341;51.256;22.478;2022-11-15T09:56:45;5.90;99.90
26743;DHT22;14341;51.256;22.478;2022-11-15T10:00:00;5.70;99.90
26743;DHT22;14341;51.256;22.478;2022-11-15T10:03:28;5.70;99.90
26743;DHT22;14341;51.256;22.478;2022-11-15T10:06:35;5.70;99.90
26743;DHT22;14341;51.256;22.478;2022-11-15T10:09:47;5.80;99.90
26743;DHT22;14341;51.256;22.478;2022-11-15T10:12:51;5.90;99.90
26743;DHT22;14341;51.256;22.478;2022-11-15T10:16:02;6.00;99.90
26743;DHT22;14341;51.256;22.478;2022-11-15T10:19:12;5.90;99.90
26743;DHT22;14341;51.256;22.478;2022-11-15T10:22:27;6.00;99.90
26743;DHT22;14341;51.256;22.478;2022-11-15T10:25:34;5.90;99.90
26743;DHT22;14341;51.256;22.478;2022-11-15T10:28:37;6.00;99.90
26743;DHT22;14341;51.256;22.478;2022-11-15T10:31:41;6.10;99.90
26743;DHT22;14341;51.256;22.478;2022-11-15T10:34:44;6.00;99.90
26743;DHT22;14341;51.256;22.478;2022-11-15T10:37:48;6.00;99.90
26743;DHT22;14341;51.256;22.478;2022-11-15T10:41:07;6.30;99.90
26743;DHT22;14341;51.256;22.478;2022-11-15T10:44:28;6.70;99.90
26743;DHT22;14341;51.256;22.478;2022-11-15T10:47:32;6.70;99.90
26743;DHT22;14341;51.256;22.478;2022-11-15T10:50:41;6.40;99.90
26743;DHT22;14341;51.256;22.478;2022-11-15T10:53:46;6.50;99.90
26743;DHT22;14341;51.256;22.478;2022-11-15T10:56:58;6.50;99.90
26743;DHT22;14341;51.256;22.478;2022-11-15T11:00:05;6.60;99.90
26743;DHT22;14341;51.256;22.478;2022-11-15T11:03:28;6.70;99.90
26743;DHT22;14341;51.256;22.478;2022-11-15T11:06:46;6.80;99.90
26743;DHT22;14341;51.256;22.478;2022-11-15T11:09:57;6.70;99.90
26743;DHT22;14341;51.256;22.478;2022-11-15T11:13:21;6.40;99.90
26743;DHT22;14341;51.256;22.478;2022-11-15T11:16:41;6.30;99.90
26743;DHT22;14341;51.256;22.478;2022-11-15T11:19:56;6.30;99.90
26743;DHT22;14341;51.256;22.478;2022-11-15T11:23:13;6.50;99.90
26743;DHT22;14341;51.256;22.478;2022-11-15T11:26:33;6.40;99.90
26743;DHT22;14341;51.256;22.478;2022-11-15T11:29:48;6.60;99.90
26743;DHT22;14341;51.256;22.478;2022-11-15T11:33:03;6.60;99.90
26743;DHT22;14341;51.256;22.478;2022-11-15T11:36:19;6.50;99.90
26743;DHT22;14341;51.256;22.478;2022-11-15T11:39:31;6.80;99.90
26743;DHT22;14341;51.256;22.478;2022-11-15T11:42:47;6.90;99.90
26743;DHT22;14341;51.256;22.478;2022-11-15T11:46:31;7.10;99.90
26743;DHT22;14341;51.256;22.478;2022-11-15T11:49:43;7.20;99.90
26743;DHT22;14341;51.256;22.478;2022-11-15T11:52:56;7.20;99.90
26743;DHT22;14341;51.256;22.478;2022-11-15T11:56:12;7.40;99.90
26743;DHT22;14341;51.256;22.478;2022-11-15T11:59:25;7.10;99.90
26743;DHT22;14341;51.256;22.478;2022-11-15T12:02:37;6.90;99.90
26743;DHT22;14341;51.256;22.478;2022-11-15T12:05:44;7.00;99.90
26743;DHT22;14341;51.256;22.478;2022-11-15T12:08:52;7.00;99.90
26743;DHT22;14341;51.256;22.478;2022-11-15T12:12:02;6.90;99.90
26743;DHT22;14341;51.256;22.478;2022-11-15T12:15:14;7.00;99.90
26743;DHT22;14341;51.256;22.478;2022-11-15T12:18:20;6.80;99.90
26743;DHT22;14341;51.256;22.478;2022-11-15T12:21:32;6.80;99.90
26743;DHT22;14341;51.256;22.478;2022-11-15T12:24:40;6.70;99.90
26743;DHT22;14341;51.256;22.478;2022-11-15T12:27:48;6.80;99.90
26743;DHT22;14341;51.256;22.478;2022-11-15T12:30:54;7.00;99.90
26743;DHT22;14341;51.256;22.478;2022-11-15T12:34:02;6.90;99.90
26743;DHT22;14341;51.256;22.478;2022-11-15T12:41:13;7.10;99.90
26743;DHT22;14341;51.256;22.478;2022-11-15T12:44:58;7.10;99.90
26743;DHT22;14341;51.256;22.478;2022-11-15T12:52:05;7.30;99.90
26743;DHT22;14341;51.256;22.478;2022-11-15T12:55:31;7.10;99.90
26743;DHT22;14341;51.256;22.478;2022-11-15T12:58:41;7.00;99.90
26743;DHT22;14341;51.256;22.478;2022-11-15T13:12:55;6.90;99.90
26743;DHT22;14341;51.256;22.478;2022-11-15T13:15:59;7.00;99.90
26743;DHT22;14341;51.256;22.478;2022-11-15T13:19:04;6.90;99.90
26743;DHT22;14341;51.256;22.478;2022-11-15T13:22:09;6.80;99.90
26743;DHT22;14341;51.256;22.478;2022-11-15T13:25:49;6.70;99.90
26743;DHT22;14341;51.256;22.478;2022-11-15T13:28:57;6.60;99.90
26743;DHT22;14341;51.256;22.478;2022-11-15T13:32:02;6.60;99.90
26743;DHT22;14341;51.256;22.478;2022-11-15T13:35:07;6.70;99.90
26743;DHT22;14341;51.256;22.478;2022-11-15T13:38:18;6.80;99.90
26743;DHT22;14341;51.256;22.478;2022-11-15T13:41:23;6.70;99.90
26743;DHT22;14341;51.256;22.478;2022-11-15T13:44:30;6.80;99.90
26743;DHT22;14341;51.256;22.478;2022-11-15T13:47:33;6.70;99.90
26743;DHT22;14341;51.256;22.478;2022-11-15T13:50:39;6.60;99.90
26743;DHT22;14341;51.256;22.478;2022-11-15T13:53:45;6.70;99.90
26743;DHT22;14341;51.256;22.478;2022-11-15T13:56:52;6.80;99.90
26743;DHT22;14341;51.256;22.478;2022-11-15T14:00:02;6.80;99.90
26743;DHT22;14341;51.256;22.478;2022-11-15T14:03:18;6.60;99.90
26743;DHT22;14341;51.256;22.478;2022-11-15T14:06:23;6.60;99.90
26743;DHT22;14341;51.256;22.478;2022-11-15T14:09:35;6.60;99.90
26743;DHT22;14341;51.256;22.478;2022-11-15T14:12:49;6.50;99.90
26743;DHT22;14341;51.256;22.478;2022-11-15T14:15:54;6.50;99.90
26743;DHT22;14341;51.256;22.478;2022-11-15T14:19:34;6.40;99.90
26743;DHT22;14341;51.256;22.478;2022-11-15T14:22:51;6.40;99.90
26743;DHT22;14341;51.256;22.478;2022-11-15T14:25:55;6.40;99.90
26743;DHT22;14341;51.256;22.478;2022-11-15T14:29:23;6.20;99.90
26743;DHT22;14341;51.256;22.478;2022-11-15T14:32:30;6.20;99.90
26743;DHT22;14341;51.256;22.478;2022-11-15T14:35:40;6.30;99.90
26743;DHT22;14341;51.256;22.478;2022-11-15T14:38:43;6.30;99.90
26743;DHT22;14341;51.256;22.478;2022-11-15T14:41:47;6.30;99.90
26743;DHT22;14341;51.256;22.478;2022-11-15T14:44:50;6.30;99.90
26743;DHT22;14341;51.256;22.478;2022-11-15T14:47:55;6.20;99.90
26743;DHT22;14341;51.256;22.478;2022-11-15T14:50:58;6.10;99.90
26743;DHT22;14341;51.256;22.478;2022-11-15T14:54:02;6.10;99.90
26743;DHT22;14341;51.256;22.478;2022-11-15T14:57:05;6.20;99.90
26743;DHT22;14341;51.256;22.478;2022-11-15T15:00:09;6.20;99.90
26743;DHT22;14341;51.256;22.478;2022-11-15T15:03:16;6.20;99.90
26743;DHT22;14341;51.256;22.478;2022-11-15T15:06:20;6.10;99.90
26743;DHT22;14341;51.256;22.478;2022-11-15T15:09:23;6.10;99.90
26743;DHT22;14341;51.256;22.478;2022-11-15T15:12:27;6.00;99.90
26743;DHT22;14341;51.256;22.478;2022-11-15T15:15:33;5.90;99.90
26743;DHT22;14341;51.256;22.478;2022-11-15T15:18:38;5.90;99.90
26743;DHT22;14341;51.256;22.478;2022-11-15T15:21:41;5.90;99.90
26743;DHT22;14341;51.256;22.478;2022-11-15T15:24:45;5.90;99.90
26743;DHT22;14341;51.256;22.478;2022-11-15T15:27:49;5.90;99.90
26743;DHT22;14341;51.256;22.478;2022-11-15T15:30:53;5.80;99.90
26743;DHT22;14341;51.256;22.478;2022-11-15T15:33:58;5.80;99.90
26743;DHT22;14341;51.256;22.478;2022-11-15T15:37:09;5.80;99.90
26743;DHT22;14341;51.256;22.478;2022-11-15T15:40:26;5.80;99.90
26743;DHT22;14341;51.256;22.478;2022-11-15T15:43:30;5.80;99.90
26743;DHT22;14341;51.256;22.478;2022-11-15T15:46:34;5.80;99.90
26743;DHT22;14341;51.256;22.478;2022-11-15T15:49:38;5.80;99.90
26743;DHT22;14341;51.256;22.478;2022-11-15T15:52:42;5.70;99.90
26743;DHT22;14341;51.256;22.478;2022-11-15T15:55:45;5.70;99.90
26743;DHT22;14341;51.256;22.478;2022-11-15T15:58:48;5.70;99.90
26743;DHT22;14341;51.256;22.478;2022-11-15T16:01:54;5.60;99.90
26743;DHT22;14341;51.256;22.478;2022-11-15T16:04:59;5.70;99.90
26743;DHT22;14341;51.256;22.478;2022-11-15T16:08:02;5.60;99.90
26743;DHT22;14341;51.256;22.478;2022-11-15T16:11:05;5.60;99.90
26743;DHT22;14341;51.256;22.478;2022-11-15T16:14:09;5.50;99.90
26743;DHT22;14341;51.256;22.478;2022-11-15T16:17:17;5.50;99.90
26743;DHT22;14341;51.256;22.478;2022-11-15T16:20:34;5.40;99.90
26743;DHT22;14341;51.256;22.478;2022-11-15T16:23:38;5.30;99.90
26743;DHT22;14341;51.256;22.478;2022-11-15T16:26:41;5.30;99.90
26743;DHT22;14341;51.256;22.478;2022-11-15T16:29:45;5.30;99.90
26743;DHT22;14341;51.256;22.478;2022-11-15T16:32:49;5.20;99.90
26743;DHT22;14341;51.256;22.478;2022-11-15T16:35:55;5.20;99.90
26743;DHT22;14341;51.256;22.478;2022-11-15T16:39:01;5.20;99.90
26743;DHT22;14341;51.256;22.478;2022-11-15T16:42:06;5.10;99.90
26743;DHT22;14341;51.256;22.478;2022-11-15T16:45:11;5.10;99.90
26743;DHT22;14341;51.256;22.478;2022-11-15T16:48:21;5.10;99.90
26743;DHT22;14341;51.256;22.478;2022-11-15T16:51:27;5.10;99.90
26743;DHT22;14341;51.256;22.478;2022-11-15T16:54:31;5.10;99.90
26743;DHT22;14341;51.256;22.478;2022-11-15T16:57:34;5.20;99.90
26743;DHT22;14341;51.256;22.478;2022-11-15T17:00:37;5.20;99.90
26743;DHT22;14341;51.256;22.478;2022-11-15T17:03:41;5.20;99.90
26743;DHT22;14341;51.256;22.478;2022-11-15T17:06:47;5.20;99.90
26743;DHT22;14341;51.256;22.478;2022-11-15T17:09:51;5.20;99.90
26743;DHT22;14341;51.256;22.478;2022-11-15T17:12:55;5.10;99.90
26743;DHT22;14341;51.256;22.478;2022-11-15T17:16:06;5.00;99.90
26743;DHT22;14341;51.256;22.478;2022-11-15T17:19:14;5.00;99.90
26743;DHT22;14341;51.256;22.478;2022-11-15T17:22:20;5.00;99.90
26743;DHT22;14341;51.256;22.478;2022-11-15T17:25:23;5.00;99.90
26743;DHT22;14341;51.256;22.478;2022-11-15T17:28:27;5.10;99.90
26743;DHT22;14341;51.256;22.478;2022-11-15T17:31:31;5.10;99.90
26743;DHT22;14341;51.256;22.478;2022-11-15T17:34:35;5.10;99.90
26743;DHT22;14341;51.256;22.478;2022-11-15T17:37:39;5.10;99.90
26743;DHT22;14341;51.256;22.478;2022-11-15T17:40:43;5.20;99.90
26743;DHT22;14341;51.256;22.478;2022-11-15T17:43:46;5.20;99.90
26743;DHT22;14341;51.256;22.478;2022-11-15T17:46:50;5.20;99.90
26743;DHT22;14341;51.256;22.478;2022-11-15T17:49:53;5.30;99.90
26743;DHT22;14341;51.256;22.478;2022-11-15T17:52:59;5.30;99.90
26743;DHT22;14341;51.256;22.478;2022-11-15T17:56:03;5.40;99.90
26743;DHT22;14341;51.256;22.478;2022-11-15T17:59:07;5.40;99.90
26743;DHT22;14341;51.256;22.478;2022-11-15T18:02:18;5.50;99.90
26743;DHT22;14341;51.256;22.478;2022-11-15T18:05:21;5.50;99.90
26743;DHT22;14341;51.256;22.478;2022-11-15T18:08:29;5.60;99.90
26743;DHT22;14341;51.256;22.478;2022-11-15T18:11:34;5.60;99.90
26743;DHT22;14341;51.256;22.478;2022-11-15T18:14:39;5.60;99.90
26743;DHT22;14341;51.256;22.478;2022-11-15T18:17:42;5.60;99.90
26743;DHT22;14341;51.256;22.478;2022-11-15T18:20:46;5.70;99.90
26743;DHT22;14341;51.256;22.478;2022-11-15T18:23:53;5.70;99.90
26743;DHT22;14341;51.256;22.478;2022-11-15T18:26:57;5.70;99.90
26743;DHT22;14341;51.256;22.478;2022-11-15T18:30:00;5.70;99.90
26743;DHT22;14341;51.256;22.478;2022-11-15T18:33:04;5.70;99.90
26743;DHT22;14341;51.256;22.478;2022-11-15T18:36:10;5.70;99.90
26743;DHT22;14341;51.256;22.478;2022-11-15T18:39:21;5.70;99.90
26743;DHT22;14341;51.256;22.478;2022-11-15T18:42:33;5.90;99.90
26743;DHT22;14341;51.256;22.478;2022-11-15T18:45:42;5.80;99.90
26743;DHT22;14341;51.256;22.478;2022-11-15T18:48:48;5.80;99.90
26743;DHT22;14341;51.256;22.478;2022-11-15T18:52:01;5.80;99.90
26743;DHT22;14341;51.256;22.478;2022-11-15T18:55:20;5.80;99.90
26743;DHT22;14341;51.256;22.478;2022-11-15T18:58:36;5.70;99.90
26743;DHT22;14341;51.256;22.478;2022-11-15T19:01:43;5.70;99.90
26743;DHT22;14341;51.256;22.478;2022-11-15T19:04:58;5.70;99.90
26743;DHT22;14341;51.256;22.478;2022-11-15T19:08:13;5.70;99.90
26743;DHT22;14341;51.256;22.478;2022-11-15T19:11:31;5.70;99.90
26743;DHT22;14341;51.256;22.478;2022-11-15T19:14:39;5.50;99.90
26743;DHT22;14341;51.256;22.478;2022-11-15T19:18:13;5.60;99.90
26743;DHT22;14341;51.256;22.478;2022-11-15T19:21:31;5.40;99.90
26743;DHT22;14341;51.256;22.478;2022-11-15T19:25:04;5.50;99.90
26743;DHT22;14341;51.256;22.478;2022-11-15T19:28:42;5.50;99.90
26743;DHT22;14341;51.256;22.478;2022-11-15T19:31:51;5.50;99.90
26743;DHT22;14341;51.256;22.478;2022-11-15T19:35:00;5.60;99.90
26743;DHT22;14341;51.256;22.478;2022-11-15T19:38:03;5.50;99.90
26743;DHT22;14341;51.256;22.478;2022-11-15T19:41:19;5.60;99.90
26743;DHT22;14341;51.256;22.478;2022-11-15T19:44:33;5.60;99.90
26743;DHT22;14341;51.256;22.478;2022-11-15T19:47:56;5.60;99.90
26743;DHT22;14341;51.256;22.478;2022-11-15T19:51:19;5.50;99.90
26743;DHT22;14341;51.256;22.478;2022-11-15T19:54:39;5.50;99.90
26743;DHT22;14341;51.256;22.478;2022-11-15T19:57:49;5.50;99.90
26743;DHT22;14341;51.256;22.478;2022-11-15T20:01:13;5.50;99.90
26743;DHT22;14341;51.256;22.478;2022-11-15T20:04:23;5.60;99.90
26743;DHT22;14341;51.256;22.478;2022-11-15T20:07:36;5.60;99.90
26743;DHT22;14341;51.256;22.478;2022-11-15T20:10:43;5.60;99.90
26743;DHT22;14341;51.256;22.478;2022-11-15T20:13:49;5.60;99.90
26743;DHT22;14341;51.256;22.478;2022-11-15T20:16:54;5.60;99.90
26743;DHT22;14341;51.256;22.478;2022-11-15T20:19:58;5.50;99.90
26743;DHT22;14341;51.256;22.478;2022-11-15T20:23:04;5.50;99.90
26743;DHT22;14341;51.256;22.478;2022-11-15T20:26:09;5.50;99.90
26743;DHT22;14341;51.256;22.478;2022-11-15T20:29:12;5.50;99.90
26743;DHT22;14341;51.256;22.478;2022-11-15T20:32:18;5.50;99.90
26743;DHT22;14341;51.256;22.478;2022-11-15T20:35:22;5.50;99.90
26743;DHT22;14341;51.256;22.478;2022-11-15T20:38:25;5.50;99.90
26743;DHT22;14341;51.256;22.478;2022-11-15T20:41:30;5.60;99.90
26743;DHT22;14341;51.256;22.478;2022-11-15T20:44:34;5.60;99.90
26743;DHT22;14341;51.256;22.478;2022-11-15T20:47:39;5.50;99.90
26743;DHT22;14341;51.256;22.478;2022-11-15T20:50:43;5.60;99.90
26743;DHT22;14341;51.256;22.478;2022-11-15T20:53:48;5.60;99.90
26743;DHT22;14341;51.256;22.478;2022-11-15T20:56:52;5.60;99.90
26743;DHT22;14341;51.256;22.478;2022-11-15T20:59:56;5.60;99.90
26743;DHT22;14341;51.256;22.478;2022-11-15T21:03:08;5.50;99.90
26743;DHT22;14341;51.256;22.478;2022-11-15T21:06:11;5.50;99.90